Macaw Arrow — C6AT5 — position and weather

sailwx.info

Track history (hours):
 
Tides and Currents Weather Stations Pressure Air Temp Water Temp Dewpoint Dewpoint Depression Visibility Wind Speed Wind Dir Waves Ship Positions

Macaw Arrow

Last reported at 2017-Nov-26 14:02 UTC. Time now 2017-Dec-16 01:43 UTC.
Position S 24°54' W 045°28'.
Warning: this ship's position is 19 days out of date.

Length 210 m; draft 13 m.

Type: Cargo ship. MMSI: 311000147.

Date/timePositionNaut miles runAvg speedWind from/ knotsBaromVisibWave heightAir tempDewpointWater temp
2017-Nov-26 14:02S 24°54' W 045°28'211.3
2017-Nov-26 13:50S 24°53' W 045°30'411.0
2017-Nov-26 13:30S 24°51' W 045°34'511.0
2017-Nov-26 13:00S 24°48' W 045°39'611.0
2017-Nov-26 12:26S 24°45' W 045°45'511.1
2017-Nov-26 11:59S 24°43' W 045°50'611.3
2017-Nov-26 11:28S 24°40' W 045°55'511.3
2017-Nov-26 11:00S 24°38' W 046°01'611.3
2017-Nov-26 10:30S 24°35' W 046°06'611.3
2017-Nov-26 10:00S 24°32' W 046°11'611.3
2017-Nov-26 09:30S 24°28' W 046°16'611.1
2017-Nov-26 09:00S 24°24' W 046°20'510.2
2017-Nov-26 08:30S 24°19' W 046°22'510.8
2017-Nov-26 08:00S 24°14' W 046°22'5 9.9
2017-Nov-26 07:30S 24°09' W 046°22'4 7.1
2017-Nov-26 07:00S 24°06' W 046°22'3 6.1
2017-Nov-26 06:30S 24°03' W 046°21'3 6.1
2017-Nov-26 06:00S 23°60' W 046°20'4 0.1
2017-Nov-24 05:12S 23°56' W 046°19'1 5.6
2017-Nov-24 05:00S 23°57' W 046°18'1 0.9
2017-Nov-24 04:19S 23°58' W 046°18'0 0.0
2017-Nov-24 03:58S 23°58' W 046°18'0 0.0
2017-Nov-24 03:25S 23°58' W 046°18'0 0.0
2017-Nov-24 02:58S 23°58' W 046°18'0 0.0
2017-Nov-24 02:28S 23°58' W 046°18'0 0.0
2017-Nov-24 01:58S 23°58' W 046°18'0 0.0
2017-Nov-24 01:22S 23°58' W 046°18'0 0.0
2017-Nov-24 00:58S 23°58' W 046°18'0 0.0
2017-Nov-24 00:13S 23°58' W 046°18'0 0.0
2017-Nov-23 23:58S 23°58' W 046°18'0 0.0
2017-Nov-23 22:55S 23°58' W 046°18'0 0.0
2017-Nov-23 22:25S 23°58' W 046°18'0 0.0
2017-Nov-23 21:31S 23°58' W 046°18'0 0.0
2017-Nov-23 21:19S 23°58' W 046°18'0 0.0
2017-Nov-23 20:49S 23°58' W 046°18'0 0.0
2017-Nov-23 20:25S 23°58' W 046°18'0 0.0
2017-Nov-23 19:55S 23°58' W 046°18'0 0.0
2017-Nov-23 18:52S 23°58' W 046°18'0 0.0
2017-Nov-23 18:28S 23°58' W 046°18'0 0.0
2017-Nov-23 17:58S 23°58' W 046°18'0 0.0
2017-Nov-23 17:28S 23°58' W 046°18'0 0.0
2017-Nov-23 16:55S 23°58' W 046°18'0 0.0
2017-Nov-23 14:22S 23°58' W 046°18'0 0.0
2017-Nov-23 13:55S 23°58' W 046°18'0 0.0
2017-Nov-23 12:52S 23°58' W 046°18'0 0.0
2017-Nov-23 12:25S 23°58' W 046°18'0 0.0
2017-Nov-23 11:55S 23°58' W 046°18'0 0.0
2017-Nov-23 11:19S 23°58' W 046°18'0 0.0
2017-Nov-23 10:43S 23°58' W 046°18'0 0.0
2017-Nov-23 10:13S 23°58' W 046°18'0 0.0
2017-Nov-23 09:43S 23°58' W 046°18'0 0.0
2017-Nov-23 09:25S 23°58' W 046°18'0 0.0
2017-Nov-23 08:37S 23°58' W 046°18'0 0.0
2017-Nov-23 08:22S 23°58' W 046°18'0 0.0
2017-Nov-23 07:58S 23°58' W 046°18'0 0.0
2017-Nov-23 07:28S 23°58' W 046°18'0 0.0
2017-Nov-23 06:46S 23°58' W 046°18'0 0.0
2017-Nov-23 06:25S 23°58' W 046°18'0 0.0
2017-Nov-23 05:55S 23°58' W 046°18'0 0.0
2017-Nov-23 05:28S 23°58' W 046°18'0 0.0
2017-Nov-23 04:58S 23°58' W 046°18'0 0.0
2017-Nov-23 04:25S 23°58' W 046°18'0 0.0
2017-Nov-23 03:58S 23°58' W 046°18'0 0.0
2017-Nov-23 03:31S 23°58' W 046°18'1 2.6
2017-Nov-23 02:59S 23°59' W 046°17'3 6.9
2017-Nov-23 02:31S 24°01' W 046°20'3 6.8
2017-Nov-23 02:01S 24°04' W 046°22'2 4.1
2017-Nov-23 01:29S 24°06' W 046°22'0 0.2
2017-Nov-23 00:59S 24°06' W 046°22'0 0.0
2017-Nov-23 00:29S 24°06' W 046°22'0 0.0
2017-Nov-22 23:53S 24°06' W 046°22'0 0.0
2017-Nov-22 23:26S 24°06' W 046°22'0 0.0
2017-Nov-22 22:59S 24°06' W 046°22'0 0.0
2017-Nov-22 22:29S 24°06' W 046°22'0 0.0
2017-Nov-22 21:59S 24°06' W 046°22'0 0.1
2017-Nov-22 21:29S 24°06' W 046°22'0 0.0
2017-Nov-22 20:56S 24°06' W 046°22'0 0.0
2017-Nov-22 20:29S 24°06' W 046°22'0 0.0
2017-Nov-22 19:59S 24°06' W 046°22'0 0.0
2017-Nov-22 19:17S 24°06' W 046°22'  
2017-Nov-20 00:29S 24°06' W 046°22'0 0.0
2017-Nov-19 23:59S 24°06' W 046°22'0 0.0
2017-Nov-19 23:29S 24°06' W 046°22'0 0.0
2017-Nov-19 22:59S 24°06' W 046°22'0 0.0
2017-Nov-19 22:29S 24°06' W 046°22'0 0.0
2017-Nov-19 21:59S 24°06' W 046°22'0 0.0
2017-Nov-19 21:29S 24°06' W 046°22'0 0.0
2017-Nov-19 20:59S 24°06' W 046°22'0 0.0
2017-Nov-19 20:29S 24°06' W 046°22'0 0.0
2017-Nov-19 19:59S 24°06' W 046°22'0 0.0
2017-Nov-19 19:29S 24°06' W 046°22'0 0.0
2017-Nov-19 18:59S 24°06' W 046°22'0 0.0
2017-Nov-19 18:29S 24°06' W 046°22'0 0.3
2017-Nov-19 18:00S 24°06' W 046°22'2 3.9
2017-Nov-19 17:31S 24°04' W 046°21'3 6.5
2017-Nov-19 17:00S 24°01' W 046°21'4 7.2
2017-Nov-19 16:31S 23°59' W 046°17'1 0.9
2017-Nov-19 15:02S 23°58' W 046°18'0 0.0
2017-Nov-19 14:47S 23°58' W 046°18'0 0.0
2017-Nov-19 14:14S 23°58' W 046°18'0 0.0
2017-Nov-19 13:41S 23°58' W 046°18'0 0.0
2017-Nov-19 13:29S 23°58' W 046°18'0 0.0
2017-Nov-19 12:59S 23°58' W 046°18'0 0.0
2017-Nov-19 08:56S 23°58' W 046°18'0 0.0
2017-Nov-18 20:32S 23°58' W 046°18'0 0.0
2017-Nov-18 20:02S 23°58' W 046°18'0 0.0
2017-Nov-18 19:38S 23°58' W 046°18'0 0.0
2017-Nov-18 19:14S 23°58' W 046°18'0 0.0
2017-Nov-18 18:44S 23°58' W 046°18'0 0.0
2017-Nov-18 18:26S 23°58' W 046°18'0 0.0
2017-Nov-18 17:32S 23°58' W 046°18'0 0.0
2017-Nov-18 17:20S 23°58' W 046°18'0 0.0
2017-Nov-18 16:59S 23°58' W 046°18'0 0.0
2017-Nov-18 16:29S 23°58' W 046°18'0 0.0
2017-Nov-18 15:50S 23°58' W 046°18'0 0.0
2017-Nov-18 15:17S 23°58' W 046°18'0 0.0
2017-Nov-18 14:56S 23°58' W 046°18'0 0.0
2017-Nov-18 14:14S 23°58' W 046°18'0 0.0
2017-Nov-18 13:44S 23°58' W 046°18'0 0.0
2017-Nov-18 12:26S 23°58' W 046°18'0 0.0
2017-Nov-18 11:53S 23°58' W 046°18'0 0.0
2017-Nov-18 11:14S 23°58' W 046°18'0 0.0
2017-Nov-18 10:47S 23°58' W 046°18'0 0.0
2017-Nov-18 10:29S 23°58' W 046°18'0 0.0
2017-Nov-18 09:17S 23°58' W 046°18'0 0.0
2017-Nov-18 08:59S 23°58' W 046°18'0 0.0
2017-Nov-18 08:20S 23°58' W 046°18'0 0.0
2017-Nov-18 07:44S 23°58' W 046°18'0 0.0
2017-Nov-18 07:20S 23°58' W 046°18'0 0.0
2017-Nov-18 06:56S 23°58' W 046°18'0 0.0
2017-Nov-18 06:29S 23°58' W 046°18'0 0.0
2017-Nov-18 05:59S 23°58' W 046°18'0 0.0
2017-Nov-18 05:29S 23°58' W 046°18'0 0.0
2017-Nov-18 05:00S 23°58' W 046°18'0 0.0
2017-Nov-18 04:30S 23°58' W 046°18'0 0.0
2017-Nov-18 04:00S 23°58' W 046°18'2 3.2
2017-Nov-18 03:30S 23°56' W 046°19'  
Track history (hours):
 
Tides and Currents Weather Stations Pressure Air Temp Water Temp Dewpoint Dewpoint Depression Visibility Wind Speed Wind Dir Waves Ship Positions

Macaw Arrow

Last reported at 2017-Nov-26 14:02 UTC. Time now 2017-Dec-16 01:43 UTC.
Position S 24°54' W 045°28'.
Warning: this ship's position is 19 days out of date.

Length 210 m; draft 13 m.

Type: Cargo ship. MMSI: 311000147.

Date/timePositionNaut miles runAvg speedWind from/ knotsBaromVisibWave heightAir tempDewpointWater temp
2017-Nov-26 14:02S 24°54' W 045°28'211.3
2017-Nov-26 13:50S 24°53' W 045°30'411.0
2017-Nov-26 13:30S 24°51' W 045°34'511.0
2017-Nov-26 13:00S 24°48' W 045°39'611.0
2017-Nov-26 12:26S 24°45' W 045°45'511.1
2017-Nov-26 11:59S 24°43' W 045°50'611.3
2017-Nov-26 11:28S 24°40' W 045°55'511.3
2017-Nov-26 11:00S 24°38' W 046°01'611.3
2017-Nov-26 10:30S 24°35' W 046°06'611.3
2017-Nov-26 10:00S 24°32' W 046°11'611.3
2017-Nov-26 09:30S 24°28' W 046°16'611.1
2017-Nov-26 09:00S 24°24' W 046°20'510.2
2017-Nov-26 08:30S 24°19' W 046°22'510.8
2017-Nov-26 08:00S 24°14' W 046°22'5 9.9
2017-Nov-26 07:30S 24°09' W 046°22'4 7.1
2017-Nov-26 07:00S 24°06' W 046°22'3 6.1
2017-Nov-26 06:30S 24°03' W 046°21'3 6.1
2017-Nov-26 06:00S 23°60' W 046°20'4 0.1
2017-Nov-24 05:12S 23°56' W 046°19'1 5.6
2017-Nov-24 05:00S 23°57' W 046°18'1 0.9
2017-Nov-24 04:19S 23°58' W 046°18'0 0.0
2017-Nov-24 03:58S 23°58' W 046°18'0 0.0
2017-Nov-24 03:25S 23°58' W 046°18'0 0.0
2017-Nov-24 02:58S 23°58' W 046°18'0 0.0
2017-Nov-24 02:28S 23°58' W 046°18'0 0.0
2017-Nov-24 01:58S 23°58' W 046°18'0 0.0
2017-Nov-24 01:22S 23°58' W 046°18'0 0.0
2017-Nov-24 00:58S 23°58' W 046°18'0 0.0
2017-Nov-24 00:13S 23°58' W 046°18'0 0.0
2017-Nov-23 23:58S 23°58' W 046°18'0 0.0
2017-Nov-23 22:55S 23°58' W 046°18'0 0.0
2017-Nov-23 22:25S 23°58' W 046°18'0 0.0
2017-Nov-23 21:31S 23°58' W 046°18'0 0.0
2017-Nov-23 21:19S 23°58' W 046°18'0 0.0
2017-Nov-23 20:49S 23°58' W 046°18'0 0.0
2017-Nov-23 20:25S 23°58' W 046°18'0 0.0
2017-Nov-23 19:55S 23°58' W 046°18'0 0.0
2017-Nov-23 18:52S 23°58' W 046°18'0 0.0
2017-Nov-23 18:28S 23°58' W 046°18'0 0.0
2017-Nov-23 17:58S 23°58' W 046°18'0 0.0
2017-Nov-23 17:28S 23°58' W 046°18'0 0.0
2017-Nov-23 16:55S 23°58' W 046°18'0 0.0
2017-Nov-23 14:22S 23°58' W 046°18'0 0.0
2017-Nov-23 13:55S 23°58' W 046°18'0 0.0
2017-Nov-23 12:52S 23°58' W 046°18'0 0.0
2017-Nov-23 12:25S 23°58' W 046°18'0 0.0
2017-Nov-23 11:55S 23°58' W 046°18'0 0.0
2017-Nov-23 11:19S 23°58' W 046°18'0 0.0
2017-Nov-23 10:43S 23°58' W 046°18'0 0.0
2017-Nov-23 10:13S 23°58' W 046°18'0 0.0
2017-Nov-23 09:43S 23°58' W 046°18'0 0.0
2017-Nov-23 09:25S 23°58' W 046°18'0 0.0
2017-Nov-23 08:37S 23°58' W 046°18'0 0.0
2017-Nov-23 08:22S 23°58' W 046°18'0 0.0
2017-Nov-23 07:58S 23°58' W 046°18'0 0.0
2017-Nov-23 07:28S 23°58' W 046°18'0 0.0
2017-Nov-23 06:46S 23°58' W 046°18'0 0.0
2017-Nov-23 06:25S 23°58' W 046°18'0 0.0
2017-Nov-23 05:55S 23°58' W 046°18'0 0.0
2017-Nov-23 05:28S 23°58' W 046°18'0 0.0
2017-Nov-23 04:58S 23°58' W 046°18'0 0.0
2017-Nov-23 04:25S 23°58' W 046°18'0 0.0
2017-Nov-23 03:58S 23°58' W 046°18'0 0.0
2017-Nov-23 03:31S 23°58' W 046°18'1 2.6
2017-Nov-23 02:59S 23°59' W 046°17'3 6.9
2017-Nov-23 02:31S 24°01' W 046°20'3 6.8
2017-Nov-23 02:01S 24°04' W 046°22'2 4.1
2017-Nov-23 01:29S 24°06' W 046°22'0 0.2
2017-Nov-23 00:59S 24°06' W 046°22'0 0.0
2017-Nov-23 00:29S 24°06' W 046°22'0 0.0
2017-Nov-22 23:53S 24°06' W 046°22'0 0.0
2017-Nov-22 23:26S 24°06' W 046°22'0 0.0
2017-Nov-22 22:59S 24°06' W 046°22'0 0.0
2017-Nov-22 22:29S 24°06' W 046°22'0 0.0
2017-Nov-22 21:59S 24°06' W 046°22'0 0.1
2017-Nov-22 21:29S 24°06' W 046°22'0 0.0
2017-Nov-22 20:56S 24°06' W 046°22'0 0.0
2017-Nov-22 20:29S 24°06' W 046°22'0 0.0
2017-Nov-22 19:59S 24°06' W 046°22'0 0.0
2017-Nov-22 19:17S 24°06' W 046°22'  
2017-Nov-20 00:29S 24°06' W 046°22'0 0.0
2017-Nov-19 23:59S 24°06' W 046°22'0 0.0
2017-Nov-19 23:29S 24°06' W 046°22'0 0.0
2017-Nov-19 22:59S 24°06' W 046°22'0 0.0
2017-Nov-19 22:29S 24°06' W 046°22'0 0.0
2017-Nov-19 21:59S 24°06' W 046°22'0 0.0
2017-Nov-19 21:29S 24°06' W 046°22'0 0.0
2017-Nov-19 20:59S 24°06' W 046°22'0 0.0
2017-Nov-19 20:29S 24°06' W 046°22'0 0.0
2017-Nov-19 19:59S 24°06' W 046°22'0 0.0
2017-Nov-19 19:29S 24°06' W 046°22'0 0.0
2017-Nov-19 18:59S 24°06' W 046°22'0 0.0
2017-Nov-19 18:29S 24°06' W 046°22'0 0.3
2017-Nov-19 18:00S 24°06' W 046°22'2 3.9
2017-Nov-19 17:31S 24°04' W 046°21'3 6.5
2017-Nov-19 17:00S 24°01' W 046°21'4 7.2
2017-Nov-19 16:31S 23°59' W 046°17'1 0.9
2017-Nov-19 15:02S 23°58' W 046°18'0 0.0
2017-Nov-19 14:47S 23°58' W 046°18'0 0.0
2017-Nov-19 14:14S 23°58' W 046°18'0 0.0
2017-Nov-19 13:41S 23°58' W 046°18'0 0.0
2017-Nov-19 13:29S 23°58' W 046°18'0 0.0
2017-Nov-19 12:59S 23°58' W 046°18'0 0.0
2017-Nov-19 08:56S 23°58' W 046°18'0 0.0
2017-Nov-18 20:32S 23°58' W 046°18'0 0.0
2017-Nov-18 20:02S 23°58' W 046°18'0 0.0
2017-Nov-18 19:38S 23°58' W 046°18'0 0.0
2017-Nov-18 19:14S 23°58' W 046°18'0 0.0
2017-Nov-18 18:44S 23°58' W 046°18'0 0.0
2017-Nov-18 18:26S 23°58' W 046°18'0 0.0
2017-Nov-18 17:32S 23°58' W 046°18'0 0.0
2017-Nov-18 17:20S 23°58' W 046°18'0 0.0
2017-Nov-18 16:59S 23°58' W 046°18'0 0.0
2017-Nov-18 16:29S 23°58' W 046°18'0 0.0
2017-Nov-18 15:50S 23°58' W 046°18'0 0.0
2017-Nov-18 15:17S 23°58' W 046°18'0 0.0
2017-Nov-18 14:56S 23°58' W 046°18'0 0.0
2017-Nov-18 14:14S 23°58' W 046°18'0 0.0
2017-Nov-18 13:44S 23°58' W 046°18'0 0.0
2017-Nov-18 12:26S 23°58' W 046°18'0 0.0
2017-Nov-18 11:53S 23°58' W 046°18'0 0.0
2017-Nov-18 11:14S 23°58' W 046°18'0 0.0
2017-Nov-18 10:47S 23°58' W 046°18'0 0.0
2017-Nov-18 10:29S 23°58' W 046°18'0 0.0
2017-Nov-18 09:17S 23°58' W 046°18'0 0.0
2017-Nov-18 08:59S 23°58' W 046°18'0 0.0
2017-Nov-18 08:20S 23°58' W 046°18'0 0.0
2017-Nov-18 07:44S 23°58' W 046°18'0 0.0
2017-Nov-18 07:20S 23°58' W 046°18'0 0.0
2017-Nov-18 06:56S 23°58' W 046°18'0 0.0
2017-Nov-18 06:29S 23°58' W 046°18'0 0.0
2017-Nov-18 05:59S 23°58' W 046°18'0 0.0
2017-Nov-18 05:29S 23°58' W 046°18'0 0.0
2017-Nov-18 05:00S 23°58' W 046°18'0 0.0
2017-Nov-18 04:30S 23°58' W 046°18'0 0.0
2017-Nov-18 04:00S 23°58' W 046°18'2 3.2
2017-Nov-18 03:30S 23°56' W 046°19'  

Dump ship's entire track history